Terminal Aerodrome Forecast
Issued by NWS Milwaukee/Sullivan, WI

Home | Current Version | Previous Version | Text Only | Print | Product List | Glossary On
Versions: 1 2 3 4 5 6 7 8 9 10 11 12 13 14 15 16 17 18 19 20 21 22 23 24 25 26 27 28 29
000
FTUS43 KMKX 261120
TAFMKE
TAF
KMKE 261120Z 2612/2718 08006KT 1/2SM RA FG OVC002
     FM261700 10006KT 3/4SM RA BR OVC003
     FM261800 11005KT 1SM -RA BR OVC003
     FM262100 05005KT 2SM BR VCSH OVC008
     FM262300 32005KT 3/4SM BR VCSH OVC003
     FM271000 VRB03KT 1 1/2SM BR OVC003
     FM271600 03004KT 5SM BR OVC008=

USA.gov is the U.S. government's official web portal to all federal, state and local government web resources and services.